チューリッヒ の空港の天気 - METARとTAF

チューリヒ国際空港 ( LSZH / ZRH ) - スイス チューリッヒ
飛行場実況気象(Metar)
観測時間09/23 00:50 CEST (09/22 22:50 UTC)
風向・風速北西 2m/s
視程10km以上
天気現象
なし
気温8℃
湿度93%
気圧1025hPa
METARLSZH 222250Z AUTO 31003KT 9999 NCD 08/07 Q1025 NOSIG
過去の天気等 Google飛行場航空写真 Wunderground天気予報

過去48時間のMETAR

飛行場予報(TAF)
発表時間: 9/22 22:25 CEST (9/22 20:25 UTC)
予報対象時間: 22日23時 CEST ~ 24日5時 CEST
風向・風速不定 1m/s
視程10km以上
なし
23日1時 CEST ~ 23日4時 CEST に徐々に
視程8000m
なし
23日2時 CEST ~ 23日5時 CEST に徐々に
視程2000m
天気現象散在した霧
23日5時 CEST から 確率 40% で
視程600m
天気現象
全天を覆う雲 鉛直視程 60m
23日8時 CEST ~ 23日10時 CEST に徐々に
視程8000m
少しの雲 雲底高度 300m
23日9時 CEST ~ 23日12時 CEST に徐々に
視程10km以上
なし
24日1時 CEST ~ 24日4時 CEST に徐々に
視程8000m
なし
24日2時 CEST ~ 24日5時 CEST に徐々に
視程2000m
天気現象散在した霧
TAF LSZH 222025Z 2221/2403 VRB02KT CAVOK TX21/2315Z TN06/2305Z
BECMG 2223/2302 8000 NSC
BECMG 2300/2303 2000 BCFG
PROB40 2303/2307 0600 FG VV002
BECMG 2306/2308 8000 FEW010
BECMG 2307/2310 CAVOK
BECMG 2323/2402 8000 NSC
BECMG 2400/2403 2000 BCFG